Time;durP1;ratioP1;P1;durP2;ratioP2;P2;SDS_P1;SDS_P2;PMS_P1;PMS_P2;Temp;Humidity;BMP_temperature;BMP_pressure;BME280_temperature;BME280_humidity;BME280_pressure;Samples;Min_cycle;Max_cycle;Signal;HPM_P1;HPM_P2
2023/03/13 00:04:22;;;;;;;9.50;2.92;;;;;;;19.75;34.30;100178.72;16120998;19;130832;-55
2023/03/13 00:09:44;;;;;;;9.82;2.63;;;;;;;19.71;34.02;100169.25;16115954;19;129637;-55
2023/03/13 00:15:06;;;;;;;8.32;2.88;;;;;;;19.67;34.28;100157.88;16117982;19;130706;-56
2023/03/13 00:20:28;;;;;;;9.70;2.47;;;;;;;19.63;34.37;100146.47;16119828;19;130918;-53
2023/03/13 00:26:02;;;;;;;12.20;2.92;;;;;;;19.63;34.34;100129.84;16119994;19;130458;-52
2023/03/13 00:31:27;;;;;;;7.90;2.80;;;;;;;19.56;34.30;100123.72;16115450;19;130724;-55
2023/03/13 00:36:48;;;;;;;7.97;2.30;;;;;;;19.54;34.42;100106.50;16119521;19;129599;-54
2023/03/13 00:42:10;;;;;;;6.72;2.58;;;;;;;19.50;34.44;100091.50;16118290;19;130453;-53
2023/03/13 00:47:32;;;;;;;9.25;2.50;;;;;;;19.47;34.31;100072.63;16116581;19;129511;-50
2023/03/13 00:52:54;;;;;;;9.40;2.83;;;;;;;19.44;34.45;100076.78;16122292;19;129839;-54
2023/03/13 00:58:16;;;;;;;9.48;2.45;;;;;;;19.42;34.75;100067.06;16120023;19;129608;-56
2023/03/13 01:03:38;;;;;;;8.10;2.78;;;;;;;19.40;34.31;100066.50;16115628;19;129314;-55
2023/03/13 01:09:01;;;;;;;5.75;2.20;;;;;;;19.37;34.71;100043.75;16116782;19;129826;-57
2023/03/13 01:14:23;;;;;;;8.82;2.35;;;;;;;19.34;34.43;100049.84;16115386;19;129489;-56
2023/03/13 01:19:45;;;;;;;10.18;2.17;;;;;;;19.34;34.55;100035.97;16114215;19;131517;-58
2023/03/13 01:25:07;;;;;;;7.03;1.98;;;;;;;19.31;34.63;100028.22;16117256;19;132051;-59
2023/03/13 01:30:30;;;;;;;7.82;2.42;;;;;;;19.29;34.54;100030.44;16113376;19;129557;-58
2023/03/13 01:36:00;;;;;;;5.07;2.10;;;;;;;19.28;35.00;100026.00;16118848;19;129974;-59
2023/03/13 01:41:23;;;;;;;16.15;2.22;;;;;;;19.25;35.00;100018.22;16112465;19;131411;-58
2023/03/13 01:46:45;;;;;;;6.93;1.90;;;;;;;19.24;34.67;99997.13;16113457;19;130848;-59
2023/03/13 01:52:15;;;;;;;7.07;2.08;;;;;;;19.22;34.93;99980.78;16111445;19;129343;-59
2023/03/13 01:57:44;;;;;;;7.95;2.28;;;;;;;19.21;35.03;99969.94;16112747;19;130542;-59
2023/03/13 02:03:11;;;;;;;10.68;1.90;;;;;;;19.16;34.85;99931.91;16116912;19;131603;-59
2023/03/13 02:09:06;;;;;;;12.27;2.03;;;;;;;19.15;34.94;99919.16;16115662;19;130428;-58
2023/03/13 02:14:32;;;;;;;6.22;1.70;;;;;;;19.13;35.45;99932.47;16116133;19;129584;-59
2023/03/13 02:19:54;;;;;;;7.25;1.90;;;;;;;19.13;35.03;99920.53;16114557;19;130496;-58
2023/03/13 02:25:24;;;;;;;5.28;1.80;;;;;;;19.11;35.12;99901.44;16114691;19;130131;-59
2023/03/13 02:30:49;;;;;;;5.43;1.58;;;;;;;19.07;35.06;99895.59;16118596;19;131024;-59
2023/03/13 02:36:12;;;;;;;6.55;1.75;;;;;;;19.06;35.38;99899.47;16112532;19;131240;-58
2023/03/13 02:41:34;;;;;;;5.72;1.70;;;;;;;19.06;35.66;99891.16;16110061;19;129745;-58
2023/03/13 02:46:56;;;;;;;8.07;1.55;;;;;;;19.04;35.47;99893.38;16112023;19;130417;-58
2023/03/13 02:52:49;;;;;;;5.25;1.40;;;;;;;19.04;35.61;99904.47;16110616;19;129365;-59
2023/03/13 02:58:11;;;;;;;6.32;1.38;;;;;;;19.03;35.57;99896.41;16108155;19;130940;-58
2023/03/13 03:03:35;;;;;;;4.93;1.35;;;;;;;19.01;35.74;99902.22;16110822;19;129540;-59
2023/03/13 03:08:57;;;;;;;6.78;1.15;;;;;;;19.00;35.70;99911.66;16109839;19;130631;-59
2023/03/13 03:14:19;;;;;;;3.90;1.30;;;;;;;18.98;35.58;99905.53;16127243;19;130935;-59
2023/03/13 03:19:41;;;;;;;3.70;1.33;;;;;;;18.97;35.86;99884.47;16123114;19;129043;-59
2023/03/13 03:25:05;;;;;;;3.58;1.10;;;;;;;18.96;35.93;99874.50;16125154;19;130540;-59
2023/03/13 03:30:27;;;;;;;1.40;0.73;;;;;;;18.93;35.59;99877.84;16124130;19;130215;-59
2023/03/13 03:35:50;;;;;;;2.33;1.10;;;;;;;18.94;35.98;99860.09;16126359;19;129648;-58
2023/03/13 03:41:15;;;;;;;3.60;1.20;;;;;;;18.92;35.88;99865.06;16123811;19;133440;-58
2023/03/13 03:46:37;;;;;;;4.78;1.20;;;;;;;18.91;35.84;99868.94;16124984;19;131623;-59
2023/03/13 03:51:58;;;;;;;3.33;1.00;;;;;;;18.89;36.13;99871.16;16122219;19;131022;-59
2023/03/13 03:57:20;;;;;;;2.67;1.10;;;;;;;18.88;35.96;99867.56;16125623;19;129645;-58
2023/03/13 04:02:42;;;;;;;2.13;0.93;;;;;;;18.87;36.00;99845.66;16124058;19;130086;-58
2023/03/13 04:08:04;;;;;;;2.40;0.80;;;;;;;18.86;36.20;99852.31;16125134;19;129375;-58
2023/03/13 04:13:26;;;;;;;2.58;0.60;;;;;;;18.85;36.21;99814.63;16123259;19;130638;-59
2023/03/13 04:18:48;;;;;;;3.03;0.90;;;;;;;18.85;36.02;99803.53;16122087;19;131186;-58
2023/03/13 04:24:10;;;;;;;7.15;1.02;;;;;;;18.84;36.09;99801.84;16121123;19;129690;-59
2023/03/13 04:29:33;;;;;;;3.05;0.88;;;;;;;18.83;36.28;99789.97;16121070;19;129622;-59
2023/03/13 04:34:55;;;;;;;2.53;0.80;;;;;;;18.82;36.50;99798.56;16120269;19;129585;-58
2023/03/13 04:40:17;;;;;;;2.53;0.73;;;;;;;18.79;36.29;99819.31;16119930;19;129468;-58
2023/03/13 04:45:39;;;;;;;2.28;0.90;;;;;;;18.79;36.59;99810.19;16117042;19;131822;-59
2023/03/13 04:51:01;;;;;;;3.83;0.90;;;;;;;18.77;36.43;99811.28;16119821;19;130381;-58
2023/03/13 04:56:25;;;;;;;1.35;0.63;;;;;;;18.77;36.70;99810.44;16117688;19;130523;-58
2023/03/13 05:02:02;;;;;;;2.17;0.80;;;;;;;18.76;36.77;99811.56;16121478;19;130901;-59
2023/03/13 05:07:24;;;;;;;2.58;0.80;;;;;;;18.75;36.57;99816.25;16117176;19;129287;-58
2023/03/13 05:12:46;;;;;;;2.28;0.88;;;;;;;18.75;36.72;99804.38;16116171;19;130432;-59
2023/03/13 05:18:08;;;;;;;3.88;0.93;;;;;;;18.73;37.02;99795.50;16117543;19;132981;-58
2023/03/13 05:23:29;;;;;;;1.85;0.75;;;;;;;18.73;36.83;99790.78;16113390;19;129878;-60
2023/03/13 05:28:51;;;;;;;1.15;0.77;;;;;;;18.72;36.74;99778.03;16116831;19;129422;-58
2023/03/13 05:34:13;;;;;;;1.00;0.52;;;;;;;18.71;37.17;99773.59;16115921;19;129610;-58
2023/03/13 05:39:34;;;;;;;2.60;0.68;;;;;;;18.71;36.91;99770.81;16119244;19;129787;-59
2023/03/13 05:44:56;;;;;;;4.68;1.00;;;;;;;18.71;37.13;99775.53;16121048;19;129569;-59
2023/03/13 05:50:18;;;;;;;2.22;0.80;;;;;;;18.69;37.01;99761.13;16115123;19;130033;-58
2023/03/13 05:55:41;;;;;;;4.03;1.10;;;;;;;18.69;37.08;99767.50;16113352;19;130504;-58
2023/03/13 06:01:08;;;;;;;4.40;0.80;;;;;;;18.69;37.26;99756.44;16112294;19;129443;-59
2023/03/13 06:06:29;;;;;;;2.63;0.80;;;;;;;18.68;37.13;99754.75;16114803;19;129521;-59
2023/03/13 06:11:51;;;;;;;1.83;0.80;;;;;;;18.86;37.28;99761.72;16112798;19;129477;-59
2023/03/13 06:17:13;;;;;;;2.92;0.85;;;;;;;19.28;36.60;99748.69;16115557;19;130246;-58
2023/03/13 06:22:35;;;;;;;5.00;0.85;;;;;;;19.66;36.39;99740.84;16111021;19;129783;-57
2023/03/13 06:27:57;;;;;;;9.75;0.93;;;;;;;19.90;36.39;99734.63;16114699;19;130743;-58
2023/03/13 06:33:19;;;;;;;9.15;1.00;;;;;;;20.02;36.44;99752.94;16114004;19;130306;-57
2023/03/13 06:38:41;;;;;;;6.45;1.48;;;;;;;20.04;36.11;99759.03;16110611;19;129748;-59
2023/03/13 06:44:04;;;;;;;9.80;1.40;;;;;;;20.01;36.23;99756.81;16116456;19;129028;-53
2023/03/13 06:49:25;;;;;;;7.57;1.17;;;;;;;19.95;36.80;99762.34;16129577;19;130563;-57
2023/03/13 06:54:47;;;;;;;11.65;1.80;;;;;;;19.89;36.86;99768.22;16127431;19;130984;-56
2023/03/13 07:00:12;;;;;;;8.27;1.90;;;;;;;19.82;36.86;99747.16;16128089;19;129310;-56
2023/03/13 07:05:34;;;;;;;12.60;1.30;;;;;;;19.74;37.00;99755.22;16125113;19;129399;-57
2023/03/13 07:11:01;;;;;;;10.32;1.77;;;;;;;19.68;37.29;99757.19;16128425;19;130319;-57
2023/03/13 07:16:23;;;;;;;10.50;2.03;;;;;;;19.57;37.34;99764.69;16128430;19;129040;-57
2023/03/13 07:21:45;;;;;;;11.20;1.95;;;;;;;19.50;37.03;99759.47;16125835;19;129934;-57
2023/03/13 07:27:07;;;;;;;13.27;1.85;;;;;;;19.44;37.12;99748.66;16131630;19;129762;-58
2023/03/13 07:32:32;;;;;;;10.25;1.70;;;;;;;19.39;37.38;99746.72;16126226;19;130118;-56
2023/03/13 07:37:55;;;;;;;17.65;1.80;;;;;;;19.33;37.14;99748.66;16128433;19;130093;-58
2023/03/13 07:43:17;;;;;;;6.28;1.55;;;;;;;19.29;37.04;99735.63;16126118;19;134300;-57
2023/03/13 07:48:41;;;;;;;9.45;1.30;;;;;;;19.23;37.21;99732.03;16123768;19;129695;-57
2023/03/13 07:54:03;;;;;;;9.02;1.60;;;;;;;19.20;37.47;99740.91;16126716;19;130777;-65
2023/03/13 07:59:25;;;;;;;6.97;1.70;;;;;;;19.17;37.07;99738.69;16124530;19;128975;-61
2023/03/13 08:04:51;;;;;;;8.07;1.52;;;;;;;19.14;37.65;99748.38;16126220;19;129082;-59
2023/03/13 08:10:12;;;;;;;;;;;;;;;19.08;37.51;99747.53;16125304;19;129450;-58
2023/03/13 08:15:34;;;;;;;11.50;1.80;;;;;;;19.05;38.03;99752.81;16123793;19;129477;-57
2023/03/13 08:21:00;;;;;;;13.30;2.08;;;;;;;19.08;38.17;99744.78;16127365;19;130887;-58
2023/03/13 08:26:25;;;;;;;10.85;1.70;;;;;;;19.18;38.22;99741.16;16122466;19;131005;-57
2023/03/13 08:31:50;;;;;;;10.40;1.93;;;;;;;19.32;38.11;99737.84;16124511;19;129411;-57
2023/03/13 08:37:15;;;;;;;8.82;1.67;;;;;;;19.44;38.27;99727.28;16126442;19;132838;-59
2023/03/13 08:42:37;;;;;;;7.18;1.65;;;;;;;19.54;37.95;99704.25;16124051;19;129557;-59
2023/03/13 08:47:59;;;;;;;5.53;1.40;;;;;;;19.68;37.64;99726.66;16118848;19;129544;-59
2023/03/13 08:53:21;;;;;;;10.20;1.35;;;;;;;19.83;37.58;99711.91;16123539;19;129577;-59
2023/03/13 08:58:43;;;;;;;7.78;1.35;;;;;;;19.91;37.42;99707.69;16123835;19;129494;-59
2023/03/13 09:04:06;;;;;;;3.22;1.52;;;;;;;19.98;36.88;99714.59;16121553;19;131760;-60
2023/03/13 09:09:28;;;;;;;6.68;2.00;;;;;;;20.03;37.15;99693.53;16119663;19;129612;-59
2023/03/13 09:14:50;;;;;;;12.38;1.52;;;;;;;20.18;36.53;99674.00;16121462;19;129595;-60
2023/03/13 09:20:15;;;;;;;7.40;1.20;;;;;;;20.39;36.47;99662.75;16119132;19;129494;-59
2023/03/13 09:25:37;;;;;;;6.82;1.55;;;;;;;20.55;36.17;99671.78;16119844;19;130480;-59
2023/03/13 09:31:09;;;;;;;7.10;1.45;;;;;;;20.72;35.85;99666.66;16120732;19;129793;-60
2023/03/13 09:36:31;;;;;;;5.30;1.17;;;;;;;20.81;36.03;99664.09;16120077;19;133481;-60
2023/03/13 09:42:16;;;;;;;3.95;1.35;;;;;;;20.90;35.94;99647.59;16121895;19;130887;-60
2023/03/13 09:47:37;;;;;;;6.28;1.60;;;;;;;20.92;35.80;99645.38;16120660;19;131232;-60
2023/03/13 09:53:12;;;;;;;9.13;1.27;;;;;;;20.90;35.63;99626.22;16122456;19;129579;-60
2023/03/13 09:58:34;;;;;;;4.40;1.10;;;;;;;20.84;35.67;99604.31;16123162;19;129846;-60
2023/03/13 10:04:04;;;;;;;4.10;0.88;;;;;;;20.82;35.67;99610.16;16121812;19;130122;-61
2023/03/13 10:09:32;;;;;;;8.02;1.83;;;;;;;20.78;36.04;99598.00;16121754;19;130148;-60
2023/03/13 10:15:16;;;;;;;6.82;1.30;;;;;;;20.71;35.65;99600.22;16118742;19;129869;-59
2023/03/13 10:20:39;;;;;;;8.70;1.15;;;;;;;20.62;35.67;99593.66;16114011;19;129418;-60
2023/03/13 10:26:01;;;;;;;6.57;1.10;;;;;;;20.53;36.12;99591.53;16117300;19;128920;-60
2023/03/13 10:31:31;;;;;;;8.27;1.98;;;;;;;20.46;36.02;99582.69;16117072;19;129312;-53
2023/03/13 10:36:57;;;;;;;9.07;1.13;;;;;;;20.39;36.24;99571.09;16116350;19;129664;-53
2023/03/13 10:42:21;;;;;;;;;;;;;;;20.26;36.95;99564.25;16116419;19;129521;-53
2023/03/13 10:47:43;;;;;;;7.28;1.17;;;;;;;20.22;36.90;99574.28;16111739;19;129506;-53
2023/03/13 10:53:29;;;;;;;15.35;1.17;;;;;;;20.18;36.85;99573.19;16109892;19;129514;-51
2023/03/13 10:58:52;;;;;;;8.57;1.17;;;;;;;20.10;37.18;99566.31;16111949;19;132134;-53
2023/03/13 11:04:30;;;;;;;6.60;1.20;;;;;;;20.07;36.88;99550.22;16113234;19;131077;-53
2023/03/13 11:10:00;;;;;;;7.78;1.15;;;;;;;20.01;36.76;99543.06;16112114;19;129241;-53
2023/03/13 11:15:45;;;;;;;7.68;1.00;;;;;;;19.95;37.15;99539.47;16111801;19;130675;-54
2023/03/13 11:21:18;;;;;;;7.32;1.08;;;;;;;19.89;36.91;99549.78;16110780;19;129417;-49
2023/03/13 11:27:25;;;;;;;6.50;1.10;;;;;;;19.84;37.38;99530.38;16113865;19;129537;-52
2023/03/13 11:32:54;;;;;;;6.10;1.00;;;;;;;19.82;37.58;99532.63;16125831;19;129651;-54
2023/03/13 11:38:31;;;;;;;2.72;1.13;;;;;;;19.84;37.30;99524.84;16130310;19;129317;-53
2023/03/13 11:44:07;;;;;;;5.25;0.80;;;;;;;19.86;37.65;99503.19;16131331;19;129669;-52
2023/03/13 11:50:03;;;;;;;6.47;0.70;;;;;;;19.91;37.45;99491.22;16130681;19;130356;-46
2023/03/13 11:56:07;;;;;;;4.38;0.90;;;;;;;19.95;37.60;99490.34;16126824;19;129603;-54
2023/03/13 12:01:38;;;;;;;3.00;0.88;;;;;;;19.96;37.65;99478.13;16121982;19;129765;-52
2023/03/13 12:07:03;;;;;;;5.75;0.95;;;;;;;20.00;37.49;99467.28;16118200;19;129650;-48
2023/03/13 12:12:43;;;;;;;3.40;0.80;;;;;;;20.03;37.24;99463.94;16116514;19;130005;-52
2023/03/13 12:18:18;;;;;;;3.28;0.82;;;;;;;20.08;37.23;99461.13;16117691;19;129497;-49
2023/03/13 12:23:43;;;;;;;3.83;0.88;;;;;;;20.10;37.01;99446.94;16116286;19;130330;-51
2023/03/13 12:29:18;;;;;;;3.50;0.80;;;;;;;20.11;37.09;99451.38;16117202;19;130701;-50
2023/03/13 12:35:03;;;;;;;4.53;1.00;;;;;;;20.14;36.94;99442.47;16113945;19;130022;-48
2023/03/13 12:40:56;;;;;;;8.23;0.80;;;;;;;20.12;36.93;99430.81;16119050;19;131970;-48
2023/03/13 12:46:17;;;;;;;5.22;1.05;;;;;;;20.11;36.72;99429.16;16121212;19;129275;-51
2023/03/13 12:52:22;;;;;;;4.63;0.80;;;;;;;20.11;36.89;99429.16;16117600;19;130458;-46
2023/03/13 12:58:17;;;;;;;3.17;0.73;;;;;;;20.11;36.96;99413.34;16117729;19;129594;-48
2023/03/13 13:04:06;;;;;;;6.53;0.90;;;;;;;20.10;36.72;99417.25;16118654;19;130666;-47
2023/03/13 13:09:35;;;;;;;4.60;0.90;;;;;;;20.08;36.84;99404.75;16120416;19;129237;-49
2023/03/13 13:15:02;;;;;;;2.25;0.68;;;;;;;20.07;36.91;99408.66;16124118;19;134176;-48
2023/03/13 13:20:35;;;;;;;4.30;0.80;;;;;;;20.03;36.62;99400.09;16121643;19;131600;-53
2023/03/13 13:26:25;;;;;;;2.55;0.90;;;;;;;20.02;36.50;99369.84;16119419;19;134573;-48
2023/03/13 13:31:49;;;;;;;3.40;1.00;;;;;;;19.97;36.86;99337.41;16120078;19;129484;-46
2023/03/13 13:37:11;;;;;;;3.25;0.85;;;;;;;19.94;36.90;99358.22;16119833;19;129526;-50
2023/03/13 13:42:33;;;;;;;2.25;0.60;;;;;;;19.90;36.75;99362.72;16119237;19;129417;-52
2023/03/13 13:48:42;;;;;;;3.78;0.75;;;;;;;19.86;36.97;99350.53;16121326;19;130217;-48
2023/03/13 13:54:32;;;;;;;4.18;0.60;;;;;;;19.85;36.83;99343.34;16115102;19;130991;-50
2023/03/13 14:00:18;;;;;;;1.85;0.68;;;;;;;19.84;36.70;99347.22;16120843;19;129766;-56
2023/03/13 14:05:40;;;;;;;3.80;0.90;;;;;;;19.83;36.73;99335.31;16120996;19;129944;-49
2023/03/13 14:11:23;;;;;;;3.40;1.00;;;;;;;19.83;36.71;99335.31;16117066;19;130223;-48
2023/03/13 14:16:50;;;;;;;3.85;0.98;;;;;;;19.84;36.45;99325.03;16114634;19;131404;-46
2023/03/13 14:22:13;;;;;;;6.20;0.73;;;;;;;19.84;36.94;99308.38;16118837;19;131723;-52
2023/03/13 14:27:42;;;;;;;3.05;0.80;;;;;;;19.86;36.71;99310.88;16116025;19;129686;-46
2023/03/13 14:33:04;;;;;;;3.63;0.90;;;;;;;19.85;36.52;99318.34;16115015;19;129438;-48
2023/03/13 14:38:32;;;;;;;5.47;1.05;;;;;;;19.85;36.42;99321.13;16116847;19;131156;-51
2023/03/13 14:44:00;;;;;;;7.45;1.13;;;;;;;19.81;36.04;99298.69;16114342;19;130088;-53
2023/03/13 14:49:25;;;;;;;5.72;1.15;;;;;;;19.81;36.07;99304.25;16111883;19;130722;-53
2023/03/13 14:54:52;;;;;;;;;;;;;;;19.77;35.41;99280.16;16112940;19;129605;-52
2023/03/13 15:00:31;;;;;;;4.27;1.23;;;;;;;19.81;35.23;99275.69;16115947;19;130607;-50
2023/03/13 15:06:25;;;;;;;4.00;1.13;;;;;;;19.76;35.26;99271.00;16122678;19;129626;-53
2023/03/13 15:11:58;;;;;;;6.45;1.40;;;;;;;19.76;34.39;99259.91;16128453;19;129526;-50
2023/03/13 15:17:23;;;;;;;8.35;1.70;;;;;;;19.79;34.41;99244.63;16126604;19;129599;-53
2023/03/13 15:22:45;;;;;;;5.83;1.60;;;;;;;19.86;34.27;99220.13;16128283;19;129487;-50
2023/03/13 15:28:18;;;;;;;5.47;1.63;;;;;;;19.99;34.04;99233.31;16129150;19;129532;-52
2023/03/13 15:33:41;;;;;;;6.45;1.88;;;;;;;20.09;33.72;99217.63;16127239;19;129612;-49
2023/03/13 15:39:05;;;;;;;6.72;1.15;;;;;;;20.21;33.46;99206.91;16126796;19;129405;-51
2023/03/13 15:44:27;;;;;;;5.45;1.48;;;;;;;20.29;33.35;99189.59;16127438;19;129368;-52
2023/03/13 15:49:48;;;;;;;5.47;1.45;;;;;;;20.38;33.34;99183.38;16126902;19;132005;-48
2023/03/13 15:55:11;;;;;;;7.60;2.05;;;;;;;20.44;32.93;99169.09;16126351;19;130551;-53
2023/03/13 16:00:33;;;;;;;4.85;1.48;;;;;;;20.47;32.88;99153.78;16123099;19;129237;-55
2023/03/13 16:05:56;;;;;;;7.70;2.10;;;;;;;20.50;32.99;99139.28;16126598;19;130021;-51
2023/03/13 16:11:18;;;;;;;7.40;1.85;;;;;;;20.49;33.11;99134.03;16124775;19;129694;-51
2023/03/13 16:16:40;;;;;;;4.40;1.30;;;;;;;20.48;32.93;99135.97;16119794;19;129311;-52
2023/03/13 16:22:02;;;;;;;7.20;1.70;;;;;;;20.47;33.34;99148.22;16123473;19;131207;-54
2023/03/13 16:27:25;;;;;;;9.45;1.75;;;;;;;20.43;32.74;99158.31;16119510;19;129681;-52
2023/03/13 16:32:47;;;;;;;13.07;2.13;;;;;;;20.37;32.96;99153.94;16122799;19;131315;-52
2023/03/13 16:38:10;;;;;;;12.10;1.77;;;;;;;20.28;33.16;99135.19;16121785;19;129437;-52
2023/03/13 16:43:32;;;;;;;13.95;3.03;;;;;;;20.22;32.97;99125.28;16119539;19;130150;-52
2023/03/13 16:48:57;;;;;;;17.17;2.42;;;;;;;20.19;33.35;99123.09;16119028;19;130035;-52
2023/03/13 16:54:19;;;;;;;17.43;2.00;;;;;;;20.14;33.13;99118.44;16118166;19;130188;-54
2023/03/13 16:59:40;;;;;;;13.82;1.92;;;;;;;20.11;33.47;99126.56;16122354;19;131559;-53
2023/03/13 17:05:02;;;;;;;8.77;2.33;;;;;;;20.09;33.56;99115.75;16118044;19;130474;-53
2023/03/13 17:10:24;;;;;;;14.23;2.80;;;;;;;20.07;33.69;99118.00;16116607;19;130117;-54
2023/03/13 17:15:46;;;;;;;15.18;2.85;;;;;;;20.05;33.56;99109.16;16120109;19;129212;-53
2023/03/13 17:21:16;;;;;;;14.00;2.55;;;;;;;20.05;33.76;99092.50;16119520;19;130921;-53
2023/03/13 17:26:38;;;;;;;17.73;3.08;;;;;;;20.01;34.12;99090.63;16117582;19;130825;-54
2023/03/13 17:32:01;;;;;;;13.25;2.60;;;;;;;19.97;34.41;99091.19;16123259;19;130758;-53
2023/03/13 17:37:25;;;;;;;18.25;2.78;;;;;;;19.95;34.67;99090.66;16119563;19;129329;-53
2023/03/13 17:42:47;;;;;;;20.45;3.30;;;;;;;19.92;34.17;99074.63;16118898;19;129240;-55
2023/03/13 17:48:11;;;;;;;17.17;3.63;;;;;;;19.89;34.33;99069.66;16122662;19;129306;-54
2023/03/13 17:53:33;;;;;;;22.80;3.72;;;;;;;19.85;34.50;99071.38;16120826;19;129137;-54
2023/03/13 17:58:58;;;;;;;23.70;3.05;;;;;;;19.80;34.84;99054.81;16120747;19;129332;-53
2023/03/13 18:04:20;;;;;;;21.13;3.20;;;;;;;19.75;34.68;99060.44;16120655;19;129986;-54
2023/03/13 18:09:46;;;;;;;20.08;3.03;;;;;;;19.71;34.98;99056.59;16120875;19;129759;-55
2023/03/13 18:15:08;;;;;;;24.45;3.03;;;;;;;19.78;34.88;99054.28;16121726;19;130349;-54
2023/03/13 18:20:31;;;;;;;10.25;2.65;;;;;;;19.87;34.83;99055.25;16130872;19;129582;-57
2023/03/13 18:25:52;;;;;;;37.53;4.00;;;;;;;20.05;34.75;99050.84;16144036;19;130073;-54
2023/03/13 18:31:14;;;;;;;23.13;3.65;;;;;;;20.21;35.06;99051.44;16145725;19;129371;-56
2023/03/13 18:36:37;;;;;;;16.27;3.00;;;;;;;20.32;34.94;99048.47;16140334;19;129389;-57
2023/03/13 18:42:00;;;;;;;29.30;3.90;;;;;;;20.39;35.11;99041.41;16132662;19;131248;-57
2023/03/13 18:47:26;;;;;;;21.48;3.35;;;;;;;20.59;34.90;99028.31;16128531;19;129516;-56
2023/03/13 18:52:47;;;;;;;21.17;3.38;;;;;;;20.90;34.55;99027.72;16129980;19;129649;-52
2023/03/13 18:58:10;;;;;;;18.75;3.05;;;;;;;21.24;34.37;99032.03;16124537;19;131678;-54
2023/03/13 19:03:32;;;;;;;41.30;4.85;;;;;;;21.53;34.45;99011.44;16129207;19;130212;-55
2023/03/13 19:09:00;;;;;;;29.42;3.40;;;;;;;21.75;34.07;99010.66;16127814;19;129560;-55
2023/03/13 19:14:22;;;;;;;26.98;3.58;;;;;;;21.89;34.07;98996.69;16127168;19;131362;-56
2023/03/13 19:19:44;;;;;;;34.42;3.83;;;;;;;21.98;33.42;98977.25;16126495;19;130389;-54
2023/03/13 19:25:06;;;;;;;20.92;3.15;;;;;;;22.01;33.91;98976.63;16122718;19;130469;-55
2023/03/13 19:30:28;;;;;;;25.45;3.47;;;;;;;22.01;33.80;98976.63;16127395;19;129816;-56
2023/03/13 19:35:50;;;;;;;23.42;3.70;;;;;;;21.95;34.22;98972.31;16130817;19;129917;-54
2023/03/13 19:41:13;;;;;;;14.30;3.17;;;;;;;21.89;34.15;98973.59;16129608;19;132781;-52
2023/03/13 19:46:38;;;;;;;20.95;3.05;;;;;;;21.79;34.17;98971.88;16125856;19;130711;-53
2023/03/13 19:52:00;;;;;;;14.50;2.75;;;;;;;21.71;34.29;98970.66;16121198;19;129579;-56
2023/03/13 19:57:22;;;;;;;13.75;2.17;;;;;;;21.60;34.90;98974.84;16127303;19;129788;-55
2023/03/13 20:02:43;;;;;;;17.38;2.72;;;;;;;21.49;35.19;98983.44;16125664;19;129823;-53
2023/03/13 20:08:06;;;;;;;17.58;2.25;;;;;;;21.40;35.06;98968.59;16126331;19;129322;-46
2023/03/13 20:13:28;;;;;;;13.77;2.50;;;;;;;21.28;35.52;98971.09;16117075;19;131351;-55
2023/03/13 20:18:51;;;;;;;17.38;2.88;;;;;;;21.21;35.44;98977.88;16116900;19;129589;-57
2023/03/13 20:24:13;;;;;;;26.25;3.08;;;;;;;21.14;35.34;98991.41;16117011;19;131545;-52
2023/03/13 20:29:34;;;;;;;17.15;2.35;;;;;;;21.09;35.59;99001.81;16117555;19;131414;-55
2023/03/13 20:34:56;;;;;;;20.33;2.90;;;;;;;21.10;35.74;99007.03;16121322;19;130359;-53
2023/03/13 20:40:18;;;;;;;50.97;5.38;;;;;;;21.13;36.36;99003.66;16117343;19;130479;-56
2023/03/13 20:45:40;;;;;;;28.00;3.70;;;;;;;21.20;36.39;98995.69;16118745;19;129877;-57
2023/03/13 20:51:02;;;;;;;21.20;2.55;;;;;;;21.32;36.00;98999.91;16116920;19;129814;-56
2023/03/13 20:56:24;;;;;;;22.25;3.58;;;;;;;21.44;35.53;99002.16;16116618;19;129826;-48
2023/03/13 21:01:47;;;;;;;22.95;3.00;;;;;;;21.51;35.51;98997.84;16117049;19;130387;-52
2023/03/13 21:07:09;;;;;;;16.40;2.15;;;;;;;21.59;35.51;98973.19;16120942;19;130002;-55
2023/03/13 21:12:31;;;;;;;22.05;2.60;;;;;;;21.64;35.32;98953.59;16106229;19;130421;-54
2023/03/13 21:17:55;;;;;;;12.40;2.13;;;;;;;21.64;35.03;98925.78;16106388;19;130270;-51
2023/03/13 21:23:17;;;;;;;24.00;2.42;;;;;;;21.62;35.34;98916.91;16101121;19;134211;-56
2023/03/13 21:28:39;;;;;;;16.85;2.60;;;;;;;21.54;35.37;98917.69;16098006;19;131334;-55
2023/03/13 21:34:01;;;;;;;18.17;2.08;;;;;;;21.44;35.39;98941.78;16117490;19;130050;-55
2023/03/13 21:39:22;;;;;;;14.32;2.53;;;;;;;21.33;35.59;98945.94;16112767;19;130594;-54
2023/03/13 21:44:47;;;;;;;21.83;2.65;;;;;;;21.22;35.24;98957.28;16116810;19;129591;-53
2023/03/13 21:50:10;;;;;;;17.13;1.90;;;;;;;21.12;35.31;98946.38;16115273;19;129602;-55
2023/03/13 21:55:34;;;;;;;14.30;1.90;;;;;;;21.03;35.41;98942.72;16113933;19;133891;-56
2023/03/13 22:00:56;;;;;;;8.85;2.58;;;;;;;20.95;35.76;98951.75;16113912;19;130327;-54
2023/03/13 22:06:21;;;;;;;11.13;1.80;;;;;;;20.86;35.45;98923.88;16113047;19;129581;-55
2023/03/13 22:11:43;;;;;;;18.30;2.33;;;;;;;20.77;35.39;98926.56;16115655;19;129594;-56
2023/03/13 22:17:04;;;;;;;12.60;2.00;;;;;;;20.70;35.59;98934.44;16110994;19;129208;-54
2023/03/13 22:22:26;;;;;;;9.40;2.00;;;;;;;20.62;35.53;98924.88;16113102;19;129731;-54
2023/03/13 22:27:48;;;;;;;6.57;1.88;;;;;;;20.56;35.72;98929.72;16112199;19;130553;-55
2023/03/13 22:33:10;;;;;;;11.40;1.90;;;;;;;20.51;35.55;98921.50;16114506;19;129569;-55
2023/03/13 22:38:37;;;;;;;8.40;1.45;;;;;;;20.44;35.60;98921.06;16112673;19;134919;-56
2023/03/13 22:43:59;;;;;;;10.88;2.17;;;;;;;20.39;35.66;98923.94;16110870;19;131003;-55
2023/03/13 22:49:21;;;;;;;9.73;1.92;;;;;;;20.34;36.07;98916.53;16110940;19;129613;-56
2023/03/13 22:54:45;;;;;;;12.50;2.13;;;;;;;20.29;35.92;98919.41;16109386;19;130238;-56
2023/03/13 23:00:08;;;;;;;11.75;1.92;;;;;;;20.24;36.01;98917.56;16110086;19;129740;-56
2023/03/13 23:05:30;;;;;;;8.73;2.13;;;;;;;20.20;35.82;98919.28;16110010;19;130537;-54
2023/03/13 23:10:51;;;;;;;6.75;1.70;;;;;;;20.17;36.04;98925.47;16106070;19;129448;-55
2023/03/13 23:16:13;;;;;;;7.97;1.45;;;;;;;20.13;35.82;98933.56;16109818;19;129936;-55
2023/03/13 23:21:35;;;;;;;6.57;1.60;;;;;;;20.09;35.66;98923.38;16111343;19;129648;-55
2023/03/13 23:26:58;;;;;;;7.35;1.45;;;;;;;20.06;36.03;98924.00;16120407;19;129534;-55
2023/03/13 23:32:21;;;;;;;4.50;1.30;;;;;;;20.04;36.00;98923.50;16120503;19;130606;-55
2023/03/13 23:37:47;;;;;;;6.55;1.75;;;;;;;20.02;35.87;98939.63;16119657;19;129403;-56
2023/03/13 23:43:08;;;;;;;;;;;;;;;19.94;35.77;98936.34;16125493;19;129625;-57
2023/03/13 23:48:30;;;;;;;6.22;1.23;;;;;;;19.93;35.75;98940.28;16127780;19;131869;-56
2023/03/13 23:53:52;;;;;;;5.93;1.10;;;;;;;19.90;35.79;98951.16;16125141;19;131073;-54
2023/03/13 23:59:14;;;;;;;12.30;1.73;;;;;;;19.87;35.44;98952.59;16126880;19;130926;-54
